sensor_id;sensor_type;location;lat;lon;timestamp;temperature;humidity
69546;SHT31;56766;52.260;20.746;2023-09-19T00:00:46;17.74;81.18
69546;SHT31;56766;52.260;20.746;2023-09-19T00:03:37;17.72;81.31
69546;SHT31;56766;52.260;20.746;2023-09-19T00:06:09;17.73;81.31
69546;SHT31;56766;52.260;20.746;2023-09-19T00:08:37;17.72;81.31
69546;SHT31;56766;52.260;20.746;2023-09-19T00:11:03;17.70;81.39
69546;SHT31;56766;52.260;20.746;2023-09-19T00:13:32;17.70;81.46
69546;SHT31;56766;52.260;20.746;2023-09-19T00:16:00;17.71;81.62
69546;SHT31;56766;52.260;20.746;2023-09-19T00:18:29;17.70;81.70
69546;SHT31;56766;52.260;20.746;2023-09-19T00:20:58;17.69;81.76
69546;SHT31;56766;52.260;20.746;2023-09-19T00:23:25;17.70;81.73
69546;SHT31;56766;52.260;20.746;2023-09-19T00:25:52;17.69;81.75
69546;SHT31;56766;52.260;20.746;2023-09-19T00:28:33;17.69;81.87
69546;SHT31;56766;52.260;20.746;2023-09-19T00:31:13;17.67;81.82
69546;SHT31;56766;52.260;20.746;2023-09-19T00:33:41;17.66;81.86
69546;SHT31;56766;52.260;20.746;2023-09-19T00:36:09;17.66;81.90
69546;SHT31;56766;52.260;20.746;2023-09-19T00:38:35;17.64;81.88
69546;SHT31;56766;52.260;20.746;2023-09-19T00:41:03;17.63;81.95
69546;SHT31;56766;52.260;20.746;2023-09-19T00:43:31;17.61;82.00
69546;SHT31;56766;52.260;20.746;2023-09-19T00:46:00;17.60;82.08
69546;SHT31;56766;52.260;20.746;2023-09-19T00:48:30;17.57;82.10
69546;SHT31;56766;52.260;20.746;2023-09-19T00:51:02;17.56;82.13
69546;SHT31;56766;52.260;20.746;2023-09-19T00:53:32;17.55;82.20
69546;SHT31;56766;52.260;20.746;2023-09-19T00:56:02;17.54;82.25
69546;SHT31;56766;52.260;20.746;2023-09-19T00:58:34;17.54;82.29
69546;SHT31;56766;52.260;20.746;2023-09-19T01:01:04;17.54;82.34
69546;SHT31;56766;52.260;20.746;2023-09-19T01:03:34;17.54;82.36
69546;SHT31;56766;52.260;20.746;2023-09-19T01:06:01;17.54;82.36
69546;SHT31;56766;52.260;20.746;2023-09-19T01:08:29;17.55;82.40
69546;SHT31;56766;52.260;20.746;2023-09-19T01:11:05;17.56;82.38
69546;SHT31;56766;52.260;20.746;2023-09-19T01:14:00;17.57;82.38
69546;SHT31;56766;52.260;20.746;2023-09-19T01:17:00;17.58;82.40
69546;SHT31;56766;52.260;20.746;2023-09-19T01:20:10;17.59;82.43
69546;SHT31;56766;52.260;20.746;2023-09-19T01:22:56;17.60;82.38
69546;SHT31;56766;52.260;20.746;2023-09-19T01:31:24;17.61;82.53
69546;SHT31;56766;52.260;20.746;2023-09-19T01:34:02;17.62;82.52
69546;SHT31;56766;52.260;20.746;2023-09-19T01:36:36;17.61;82.45
69546;SHT31;56766;52.260;20.746;2023-09-19T01:39:11;17.62;82.49
69546;SHT31;56766;52.260;20.746;2023-09-19T01:47:37;17.63;82.36
69546;SHT31;56766;52.260;20.746;2023-09-19T01:50:17;17.63;82.29
69546;SHT31;56766;52.260;20.746;2023-09-19T01:52:59;17.62;82.43
69546;SHT31;56766;52.260;20.746;2023-09-19T01:55:37;17.62;82.46
69546;SHT31;56766;52.260;20.746;2023-09-19T01:58:21;17.61;82.40
69546;SHT31;56766;52.260;20.746;2023-09-19T02:01:05;17.62;82.46
69546;SHT31;56766;52.260;20.746;2023-09-19T02:03:36;17.61;82.45
69546;SHT31;56766;52.260;20.746;2023-09-19T02:06:04;17.61;82.47
69546;SHT31;56766;52.260;20.746;2023-09-19T02:08:32;17.59;82.47
69546;SHT31;56766;52.260;20.746;2023-09-19T02:11:00;17.59;82.50
69546;SHT31;56766;52.260;20.746;2023-09-19T02:13:26;17.59;82.54
69546;SHT31;56766;52.260;20.746;2023-09-19T02:15:54;17.59;82.50
69546;SHT31;56766;52.260;20.746;2023-09-19T02:18:22;17.58;82.45
69546;SHT31;56766;52.260;20.746;2023-09-19T02:20:48;17.57;82.51
69546;SHT31;56766;52.260;20.746;2023-09-19T02:23:17;17.53;82.59
69546;SHT31;56766;52.260;20.746;2023-09-19T02:25:52;17.49;82.53
69546;SHT31;56766;52.260;20.746;2023-09-19T02:28:24;17.48;82.50
69546;SHT31;56766;52.260;20.746;2023-09-19T02:30:56;17.46;82.59
69546;SHT31;56766;52.260;20.746;2023-09-19T02:33:23;17.45;82.59
69546;SHT31;56766;52.260;20.746;2023-09-19T02:35:50;17.42;82.61
69546;SHT31;56766;52.260;20.746;2023-09-19T02:38:24;17.40;82.71
69546;SHT31;56766;52.260;20.746;2023-09-19T02:40:52;17.38;82.72
69546;SHT31;56766;52.260;20.746;2023-09-19T02:43:22;17.36;82.73
69546;SHT31;56766;52.260;20.746;2023-09-19T02:45:50;17.34;82.74
69546;SHT31;56766;52.260;20.746;2023-09-19T02:48:17;17.32;82.74
69546;SHT31;56766;52.260;20.746;2023-09-19T02:50:45;17.30;82.70
69546;SHT31;56766;52.260;20.746;2023-09-19T02:53:12;17.28;82.65
69546;SHT31;56766;52.260;20.746;2023-09-19T02:55:39;17.25;82.65
69546;SHT31;56766;52.260;20.746;2023-09-19T02:58:07;17.21;82.70
69546;SHT31;56766;52.260;20.746;2023-09-19T03:00:41;17.17;82.75
69546;SHT31;56766;52.260;20.746;2023-09-19T03:03:08;17.13;82.80
69546;SHT31;56766;52.260;20.746;2023-09-19T03:05:35;17.11;82.86
69546;SHT31;56766;52.260;20.746;2023-09-19T03:08:02;17.08;82.90
69546;SHT31;56766;52.260;20.746;2023-09-19T03:10:29;17.07;82.88
69546;SHT31;56766;52.260;20.746;2023-09-19T03:12:58;17.04;82.80
69546;SHT31;56766;52.260;20.746;2023-09-19T03:15:28;17.02;82.66
69546;SHT31;56766;52.260;20.746;2023-09-19T03:17:55;17.00;82.74
69546;SHT31;56766;52.260;20.746;2023-09-19T03:20:22;16.98;82.91
69546;SHT31;56766;52.260;20.746;2023-09-19T03:22:49;16.96;83.00
69546;SHT31;56766;52.260;20.746;2023-09-19T03:25:15;16.93;83.10
69546;SHT31;56766;52.260;20.746;2023-09-19T03:27:43;16.91;83.20
69546;SHT31;56766;52.260;20.746;2023-09-19T03:30:10;16.88;83.20
69546;SHT31;56766;52.260;20.746;2023-09-19T03:32:49;16.86;83.26
69546;SHT31;56766;52.260;20.746;2023-09-19T03:35:17;16.84;83.38
69546;SHT31;56766;52.260;20.746;2023-09-19T03:37:44;16.82;83.34
69546;SHT31;56766;52.260;20.746;2023-09-19T03:40:11;16.79;83.31
69546;SHT31;56766;52.260;20.746;2023-09-19T03:42:40;16.76;83.39
69546;SHT31;56766;52.260;20.746;2023-09-19T03:45:08;16.74;83.52
69546;SHT31;56766;52.260;20.746;2023-09-19T03:47:39;16.72;83.63
69546;SHT31;56766;52.260;20.746;2023-09-19T03:50:07;16.71;83.77
69546;SHT31;56766;52.260;20.746;2023-09-19T03:52:34;16.71;83.87
69546;SHT31;56766;52.260;20.746;2023-09-19T03:55:01;16.72;83.90
69546;SHT31;56766;52.260;20.746;2023-09-19T03:57:37;16.74;83.97
69546;SHT31;56766;52.260;20.746;2023-09-19T04:00:05;16.75;84.04
69546;SHT31;56766;52.260;20.746;2023-09-19T04:02:38;16.77;84.07
69546;SHT31;56766;52.260;20.746;2023-09-19T04:05:06;16.78;84.13
69546;SHT31;56766;52.260;20.746;2023-09-19T04:07:33;16.78;84.10
69546;SHT31;56766;52.260;20.746;2023-09-19T04:10:00;16.79;84.04
69546;SHT31;56766;52.260;20.746;2023-09-19T04:12:27;16.78;84.10
69546;SHT31;56766;52.260;20.746;2023-09-19T04:14:54;16.77;84.00
69546;SHT31;56766;52.260;20.746;2023-09-19T04:17:21;16.75;84.00
69546;SHT31;56766;52.260;20.746;2023-09-19T04:19:47;16.73;83.86
69546;SHT31;56766;52.260;20.746;2023-09-19T04:22:14;16.72;83.79
69546;SHT31;56766;52.260;20.746;2023-09-19T04:24:40;16.69;83.81
69546;SHT31;56766;52.260;20.746;2023-09-19T04:27:07;16.66;83.90
69546;SHT31;56766;52.260;20.746;2023-09-19T04:29:34;16.65;83.87
69546;SHT31;56766;52.260;20.746;2023-09-19T04:32:01;16.63;83.94
69546;SHT31;56766;52.260;20.746;2023-09-19T04:34:32;16.65;83.92
69546;SHT31;56766;52.260;20.746;2023-09-19T04:37:00;16.65;83.98
69546;SHT31;56766;52.260;20.746;2023-09-19T04:39:28;16.65;84.00
69546;SHT31;56766;52.260;20.746;2023-09-19T04:41:55;16.67;83.93
69546;SHT31;56766;52.260;20.746;2023-09-19T04:44:21;16.68;83.97
69546;SHT31;56766;52.260;20.746;2023-09-19T04:46:48;16.70;84.02
69546;SHT31;56766;52.260;20.746;2023-09-19T04:49:15;16.74;84.08
69546;SHT31;56766;52.260;20.746;2023-09-19T04:51:41;16.79;84.12
69546;SHT31;56766;52.260;20.746;2023-09-19T04:54:09;16.88;84.17
69546;SHT31;56766;52.260;20.746;2023-09-19T04:56:35;16.99;84.21
69546;SHT31;56766;52.260;20.746;2023-09-19T04:59:02;17.11;84.21
69546;SHT31;56766;52.260;20.746;2023-09-19T05:01:29;17.21;84.21
69546;SHT31;56766;52.260;20.746;2023-09-19T05:03:56;17.34;84.07
69546;SHT31;56766;52.260;20.746;2023-09-19T05:06:22;17.48;83.99
69546;SHT31;56766;52.260;20.746;2023-09-19T05:08:50;17.60;83.90
69546;SHT31;56766;52.260;20.746;2023-09-19T05:11:20;17.73;83.81
69546;SHT31;56766;52.260;20.746;2023-09-19T05:13:49;17.88;83.76
69546;SHT31;56766;52.260;20.746;2023-09-19T05:16:16;18.05;83.66
69546;SHT31;56766;52.260;20.746;2023-09-19T05:18:43;18.22;83.51
69546;SHT31;56766;52.260;20.746;2023-09-19T05:21:10;18.41;83.29
69546;SHT31;56766;52.260;20.746;2023-09-19T05:23:36;18.54;83.02
69546;SHT31;56766;52.260;20.746;2023-09-19T05:26:03;18.67;82.64
69546;SHT31;56766;52.260;20.746;2023-09-19T05:28:31;18.76;82.37
69546;SHT31;56766;52.260;20.746;2023-09-19T05:31:01;18.83;82.23
69546;SHT31;56766;52.260;20.746;2023-09-19T05:33:31;18.90;81.99
69546;SHT31;56766;52.260;20.746;2023-09-19T05:35:58;18.97;81.64
69546;SHT31;56766;52.260;20.746;2023-09-19T05:38:25;19.06;81.48
69546;SHT31;56766;52.260;20.746;2023-09-19T05:40:53;19.16;81.31
69546;SHT31;56766;52.260;20.746;2023-09-19T05:43:20;19.27;81.08
69546;SHT31;56766;52.260;20.746;2023-09-19T05:45:47;19.38;80.75
69546;SHT31;56766;52.260;20.746;2023-09-19T05:48:14;19.50;80.54
69546;SHT31;56766;52.260;20.746;2023-09-19T05:50:43;19.60;80.27
69546;SHT31;56766;52.260;20.746;2023-09-19T05:53:10;19.67;80.08
69546;SHT31;56766;52.260;20.746;2023-09-19T05:55:41;19.74;79.90
69546;SHT31;56766;52.260;20.746;2023-09-19T05:58:08;19.79;79.64
69546;SHT31;56766;52.260;20.746;2023-09-19T06:00:36;19.82;79.41
69546;SHT31;56766;52.260;20.746;2023-09-19T06:03:03;19.84;79.21
69546;SHT31;56766;52.260;20.746;2023-09-19T06:05:29;19.89;79.09
69546;SHT31;56766;52.260;20.746;2023-09-19T06:07:59;19.95;78.96
69546;SHT31;56766;52.260;20.746;2023-09-19T06:10:26;20.08;78.90
69546;SHT31;56766;52.260;20.746;2023-09-19T06:12:58;20.26;78.75
69546;SHT31;56766;52.260;20.746;2023-09-19T06:15:25;20.44;78.40
69546;SHT31;56766;52.260;20.746;2023-09-19T06:17:54;20.59;78.10
69546;SHT31;56766;52.260;20.746;2023-09-19T06:20:23;20.75;77.81
69546;SHT31;56766;52.260;20.746;2023-09-19T06:22:53;20.91;77.50
69546;SHT31;56766;52.260;20.746;2023-09-19T06:25:20;21.08;77.16
69546;SHT31;56766;52.260;20.746;2023-09-19T06:27:49;21.23;76.82
69546;SHT31;56766;52.260;20.746;2023-09-19T06:30:22;21.39;76.42
69546;SHT31;56766;52.260;20.746;2023-09-19T06:33:00;21.52;76.04
69546;SHT31;56766;52.260;20.746;2023-09-19T06:35:28;21.64;75.52
69546;SHT31;56766;52.260;20.746;2023-09-19T06:38:02;21.73;75.02
69546;SHT31;56766;52.260;20.746;2023-09-19T06:40:30;21.81;74.76
69546;SHT31;56766;52.260;20.746;2023-09-19T06:42:57;21.95;74.51
69546;SHT31;56766;52.260;20.746;2023-09-19T06:45:24;22.07;73.99
69546;SHT31;56766;52.260;20.746;2023-09-19T06:47:53;22.20;73.61
69546;SHT31;56766;52.260;20.746;2023-09-19T06:50:24;22.38;73.44
69546;SHT31;56766;52.260;20.746;2023-09-19T06:52:53;22.55;72.68
69546;SHT31;56766;52.260;20.746;2023-09-19T06:55:22;22.67;72.09
69546;SHT31;56766;52.260;20.746;2023-09-19T06:57:54;22.75;71.54
69546;SHT31;56766;52.260;20.746;2023-09-19T07:00:21;22.83;71.02
69546;SHT31;56766;52.260;20.746;2023-09-19T07:03:04;22.86;70.53
69546;SHT31;56766;52.260;20.746;2023-09-19T07:05:35;22.91;70.14
69546;SHT31;56766;52.260;20.746;2023-09-19T07:08:10;22.96;70.05
69546;SHT31;56766;52.260;20.746;2023-09-19T07:10:41;23.02;69.78
69546;SHT31;56766;52.260;20.746;2023-09-19T07:13:15;23.07;69.20
69546;SHT31;56766;52.260;20.746;2023-09-19T07:15:44;23.10;68.67
69546;SHT31;56766;52.260;20.746;2023-09-19T07:18:17;23.23;68.70
69546;SHT31;56766;52.260;20.746;2023-09-19T07:20:44;23.35;68.21
69546;SHT31;56766;52.260;20.746;2023-09-19T07:23:16;23.54;67.89
69546;SHT31;56766;52.260;20.746;2023-09-19T07:25:49;23.79;67.74
69546;SHT31;56766;52.260;20.746;2023-09-19T07:28:16;24.00;67.34
69546;SHT31;56766;52.260;20.746;2023-09-19T07:30:44;24.11;66.92
69546;SHT31;56766;52.260;20.746;2023-09-19T07:33:10;23.98;66.41
69546;SHT31;56766;52.260;20.746;2023-09-19T07:35:38;23.78;66.42
69546;SHT31;56766;52.260;20.746;2023-09-19T07:38:08;23.57;66.81
69546;SHT31;56766;52.260;20.746;2023-09-19T07:40:37;23.40;67.28
69546;SHT31;56766;52.260;20.746;2023-09-19T07:43:04;23.33;67.33
69546;SHT31;56766;52.260;20.746;2023-09-19T07:45:33;23.26;67.22
69546;SHT31;56766;52.260;20.746;2023-09-19T07:48:00;23.25;67.58
69546;SHT31;56766;52.260;20.746;2023-09-19T07:50:30;23.22;67.37
69546;SHT31;56766;52.260;20.746;2023-09-19T07:52:57;23.20;67.16
69546;SHT31;56766;52.260;20.746;2023-09-19T07:55:25;23.14;67.33
69546;SHT31;56766;52.260;20.746;2023-09-19T07:57:52;23.02;67.23
69546;SHT31;56766;52.260;20.746;2023-09-19T08:00:20;22.83;67.54
69546;SHT31;56766;52.260;20.746;2023-09-19T08:02:47;22.65;67.96
69546;SHT31;56766;52.260;20.746;2023-09-19T08:05:18;22.52;68.37
69546;SHT31;56766;52.260;20.746;2023-09-19T08:07:46;22.40;68.68
69546;SHT31;56766;52.260;20.746;2023-09-19T08:10:16;22.26;69.01
69546;SHT31;56766;52.260;20.746;2023-09-19T08:12:47;22.09;69.28
69546;SHT31;56766;52.260;20.746;2023-09-19T08:15:16;21.91;69.62
69546;SHT31;56766;52.260;20.746;2023-09-19T08:17:48;21.76;70.11
69546;SHT31;56766;52.260;20.746;2023-09-19T08:20:15;21.64;70.38
69546;SHT31;56766;52.260;20.746;2023-09-19T08:22:47;21.51;70.72
69546;SHT31;56766;52.260;20.746;2023-09-19T08:25:26;21.34;71.19
69546;SHT31;56766;52.260;20.746;2023-09-19T08:27:55;21.21;71.55
69546;SHT31;56766;52.260;20.746;2023-09-19T08:30:24;21.10;71.86
69546;SHT31;56766;52.260;20.746;2023-09-19T08:33:00;21.05;72.19
69546;SHT31;56766;52.260;20.746;2023-09-19T08:35:27;20.99;72.54
69546;SHT31;56766;52.260;20.746;2023-09-19T08:37:54;20.96;72.78
69546;SHT31;56766;52.260;20.746;2023-09-19T08:40:27;20.98;73.05
69546;SHT31;56766;52.260;20.746;2023-09-19T08:42:56;21.03;73.16
69546;SHT31;56766;52.260;20.746;2023-09-19T08:45:25;21.11;73.18
69546;SHT31;56766;52.260;20.746;2023-09-19T08:48:24;21.13;73.26
69546;SHT31;56766;52.260;20.746;2023-09-19T08:51:03;21.11;73.40
69546;SHT31;56766;52.260;20.746;2023-09-19T08:53:51;21.05;73.51
69546;SHT31;56766;52.260;20.746;2023-09-19T08:56:32;20.90;73.88
69546;SHT31;56766;52.260;20.746;2023-09-19T08:59:03;20.80;74.33
69546;SHT31;56766;52.260;20.746;2023-09-19T09:01:40;20.68;74.82
69546;SHT31;56766;52.260;20.746;2023-09-19T09:04:09;20.56;75.25
69546;SHT31;56766;52.260;20.746;2023-09-19T09:06:41;20.50;75.62
69546;SHT31;56766;52.260;20.746;2023-09-19T09:09:10;20.45;75.91
69546;SHT31;56766;52.260;20.746;2023-09-19T09:11:38;20.40;76.19
69546;SHT31;56766;52.260;20.746;2023-09-19T09:14:07;20.35;76.56
69546;SHT31;56766;52.260;20.746;2023-09-19T09:16:34;20.29;76.81
69546;SHT31;56766;52.260;20.746;2023-09-19T09:19:01;20.31;77.06
69546;SHT31;56766;52.260;20.746;2023-09-19T09:21:28;20.31;77.43
69546;SHT31;56766;52.260;20.746;2023-09-19T09:23:55;20.35;77.64
69546;SHT31;56766;52.260;20.746;2023-09-19T09:29:03;20.42;78.16
69546;SHT31;56766;52.260;20.746;2023-09-19T09:31:30;20.46;78.30
69546;SHT31;56766;52.260;20.746;2023-09-19T09:33:58;20.45;78.45
69546;SHT31;56766;52.260;20.746;2023-09-19T09:36:36;20.53;78.73
69546;SHT31;56766;52.260;20.746;2023-09-19T09:39:05;20.60;78.66
69546;SHT31;56766;52.260;20.746;2023-09-19T09:41:51;20.68;78.62
69546;SHT31;56766;52.260;20.746;2023-09-19T09:44:18;20.70;78.66
69546;SHT31;56766;52.260;20.746;2023-09-19T09:46:46;20.69;78.73
69546;SHT31;56766;52.260;20.746;2023-09-19T09:49:27;20.68;78.96
69546;SHT31;56766;52.260;20.746;2023-09-19T09:52:03;20.74;78.98
69546;SHT31;56766;52.260;20.746;2023-09-19T09:55:02;20.84;78.89
69546;SHT31;56766;52.260;20.746;2023-09-19T09:57:34;20.93;78.99
69546;SHT31;56766;52.260;20.746;2023-09-19T10:00:02;20.95;78.90
69546;SHT31;56766;52.260;20.746;2023-09-19T10:02:35;20.94;78.79
69546;SHT31;56766;52.260;20.746;2023-09-19T10:05:17;20.96;78.89
69546;SHT31;56766;52.260;20.746;2023-09-19T10:08:11;21.00;79.04
69546;SHT31;56766;52.260;20.746;2023-09-19T10:10:46;21.02;79.24
69546;SHT31;56766;52.260;20.746;2023-09-19T10:13:31;21.07;79.18
69546;SHT31;56766;52.260;20.746;2023-09-19T10:16:06;21.15;79.28
69546;SHT31;56766;52.260;20.746;2023-09-19T10:18:36;21.26;79.41
69546;SHT31;56766;52.260;20.746;2023-09-19T10:21:08;21.30;79.44
69546;SHT31;56766;52.260;20.746;2023-09-19T10:23:38;21.34;79.35
69546;SHT31;56766;52.260;20.746;2023-09-19T10:26:09;21.37;79.22
69546;SHT31;56766;52.260;20.746;2023-09-19T10:28:37;21.41;79.28
69546;SHT31;56766;52.260;20.746;2023-09-19T10:31:05;21.50;79.39
69546;SHT31;56766;52.260;20.746;2023-09-19T10:33:36;21.62;79.11
69546;SHT31;56766;52.260;20.746;2023-09-19T10:36:05;21.72;79.20
69546;SHT31;56766;52.260;20.746;2023-09-19T10:38:33;21.84;79.04
69546;SHT31;56766;52.260;20.746;2023-09-19T10:41:05;21.95;78.69
69546;SHT31;56766;52.260;20.746;2023-09-19T10:43:33;22.06;78.64
69546;SHT31;56766;52.260;20.746;2023-09-19T10:46:07;22.18;78.48
69546;SHT31;56766;52.260;20.746;2023-09-19T10:48:38;22.29;78.00
69546;SHT31;56766;52.260;20.746;2023-09-19T10:51:15;22.37;77.67
69546;SHT31;56766;52.260;20.746;2023-09-19T10:53:56;22.45;77.82
69546;SHT31;56766;52.260;20.746;2023-09-19T10:56:34;22.50;77.67
69546;SHT31;56766;52.260;20.746;2023-09-19T10:59:10;22.47;77.21
69546;SHT31;56766;52.260;20.746;2023-09-19T11:07:20;22.34;77.24
69546;SHT31;56766;52.260;20.746;2023-09-19T11:09:52;22.32;76.90
69546;SHT31;56766;52.260;20.746;2023-09-19T11:16:02;22.56;77.02
69546;SHT31;56766;52.260;20.746;2023-09-19T11:26:49;22.80;75.45
69546;SHT31;56766;52.260;20.746;2023-09-19T11:29:28;22.87;75.68
69546;SHT31;56766;52.260;20.746;2023-09-19T11:31:58;22.94;75.23
69546;SHT31;56766;52.260;20.746;2023-09-19T11:34:45;22.84;74.78
69546;SHT31;56766;52.260;20.746;2023-09-19T11:40:05;22.62;75.37
69546;SHT31;56766;52.260;20.746;2023-09-19T11:42:47;22.57;75.22
69546;SHT31;56766;52.260;20.746;2023-09-19T11:48:07;22.65;75.28
69546;SHT31;56766;52.260;20.746;2023-09-19T11:50:36;22.74;75.54
69546;SHT31;56766;52.260;20.746;2023-09-19T11:53:11;22.87;75.47
69546;SHT31;56766;52.260;20.746;2023-09-19T11:55:39;22.99;75.45
69546;SHT31;56766;52.260;20.746;2023-09-19T11:58:09;23.16;75.51
69546;SHT31;56766;52.260;20.746;2023-09-19T12:00:43;23.32;75.25
69546;SHT31;56766;52.260;20.746;2023-09-19T12:03:12;23.45;75.06
69546;SHT31;56766;52.260;20.746;2023-09-19T12:05:41;23.38;74.34
69546;SHT31;56766;52.260;20.746;2023-09-19T12:08:08;23.22;74.44
69546;SHT31;56766;52.260;20.746;2023-09-19T12:10:46;23.09;74.33
69546;SHT31;56766;52.260;20.746;2023-09-19T12:13:18;22.94;74.32
69546;SHT31;56766;52.260;20.746;2023-09-19T12:15:47;22.98;74.85
69546;SHT31;56766;52.260;20.746;2023-09-19T12:18:29;23.13;75.01
69546;SHT31;56766;52.260;20.746;2023-09-19T12:20:57;23.28;74.73
69546;SHT31;56766;52.260;20.746;2023-09-19T12:23:25;23.34;74.65
69546;SHT31;56766;52.260;20.746;2023-09-19T12:25:55;23.34;74.65
69546;SHT31;56766;52.260;20.746;2023-09-19T12:28:27;23.36;74.54
69546;SHT31;56766;52.260;20.746;2023-09-19T12:31:06;23.40;74.51
69546;SHT31;56766;52.260;20.746;2023-09-19T12:33:34;23.49;74.39
69546;SHT31;56766;52.260;20.746;2023-09-19T12:36:20;23.56;74.21
69546;SHT31;56766;52.260;20.746;2023-09-19T12:38:58;23.59;74.13
69546;SHT31;56766;52.260;20.746;2023-09-19T12:41:26;23.50;73.83
69546;SHT31;56766;52.260;20.746;2023-09-19T12:43:54;23.42;74.15
69546;SHT31;56766;52.260;20.746;2023-09-19T12:46:22;23.33;74.13
69546;SHT31;56766;52.260;20.746;2023-09-19T12:49:18;23.18;73.95
69546;SHT31;56766;52.260;20.746;2023-09-19T12:51:46;23.01;74.24
69546;SHT31;56766;52.260;20.746;2023-09-19T12:54:14;22.93;74.28
69546;SHT31;56766;52.260;20.746;2023-09-19T12:56:44;22.92;74.48
69546;SHT31;56766;52.260;20.746;2023-09-19T12:59:13;22.98;74.55
69546;SHT31;56766;52.260;20.746;2023-09-19T13:01:42;23.01;74.73
69546;SHT31;56766;52.260;20.746;2023-09-19T13:04:21;23.08;74.69
69546;SHT31;56766;52.260;20.746;2023-09-19T13:06:56;23.17;74.87
69546;SHT31;56766;52.260;20.746;2023-09-19T13:09:27;23.26;74.71
69546;SHT31;56766;52.260;20.746;2023-09-19T13:12:01;23.33;74.55
69546;SHT31;56766;52.260;20.746;2023-09-19T13:14:30;23.36;74.33
69546;SHT31;56766;52.260;20.746;2023-09-19T13:17:08;23.42;74.23
69546;SHT31;56766;52.260;20.746;2023-09-19T13:19:48;23.46;74.18
69546;SHT31;56766;52.260;20.746;2023-09-19T13:25:17;23.32;73.52
69546;SHT31;56766;52.260;20.746;2023-09-19T13:27:56;23.24;73.55
69546;SHT31;56766;52.260;20.746;2023-09-19T13:30:26;23.17;73.51
69546;SHT31;56766;52.260;20.746;2023-09-19T13:33:06;23.15;73.76
69546;SHT31;56766;52.260;20.746;2023-09-19T13:35:39;23.14;73.39
69546;SHT31;56766;52.260;20.746;2023-09-19T13:38:09;23.08;73.56
69546;SHT31;56766;52.260;20.746;2023-09-19T13:40:40;23.06;73.57
69546;SHT31;56766;52.260;20.746;2023-09-19T13:43:10;23.04;73.73
69546;SHT31;56766;52.260;20.746;2023-09-19T13:45:40;22.98;73.77
69546;SHT31;56766;52.260;20.746;2023-09-19T13:48:10;22.88;73.97
69546;SHT31;56766;52.260;20.746;2023-09-19T13:50:41;22.74;74.08
69546;SHT31;56766;52.260;20.746;2023-09-19T13:53:08;22.56;74.01
69546;SHT31;56766;52.260;20.746;2023-09-19T13:55:35;22.38;73.89
69546;SHT31;56766;52.260;20.746;2023-09-19T13:58:04;22.21;73.48
69546;SHT31;56766;52.260;20.746;2023-09-19T14:00:33;22.08;73.83
69546;SHT31;56766;52.260;20.746;2023-09-19T14:03:00;22.05;73.81
69546;SHT31;56766;52.260;20.746;2023-09-19T14:05:27;22.04;73.63
69546;SHT31;56766;52.260;20.746;2023-09-19T14:07:54;21.99;73.39
69546;SHT31;56766;52.260;20.746;2023-09-19T14:10:22;21.95;73.58
69546;SHT31;56766;52.260;20.746;2023-09-19T14:12:49;21.97;73.64
69546;SHT31;56766;52.260;20.746;2023-09-19T14:15:16;21.96;73.52
69546;SHT31;56766;52.260;20.746;2023-09-19T14:17:43;21.98;73.37
69546;SHT31;56766;52.260;20.746;2023-09-19T14:20:11;22.05;73.65
69546;SHT31;56766;52.260;20.746;2023-09-19T14:22:38;22.10;73.12
69546;SHT31;56766;52.260;20.746;2023-09-19T14:25:05;22.10;73.29
69546;SHT31;56766;52.260;20.746;2023-09-19T14:27:32;22.18;73.30
69546;SHT31;56766;52.260;20.746;2023-09-19T14:29:59;22.24;73.08
69546;SHT31;56766;52.260;20.746;2023-09-19T14:32:25;22.26;73.19
69546;SHT31;56766;52.260;20.746;2023-09-19T14:34:52;22.32;73.20
69546;SHT31;56766;52.260;20.746;2023-09-19T14:37:19;22.36;72.96
69546;SHT31;56766;52.260;20.746;2023-09-19T14:39:47;22.38;73.12
69546;SHT31;56766;52.260;20.746;2023-09-19T14:42:14;22.46;73.29
69546;SHT31;56766;52.260;20.746;2023-09-19T14:44:43;22.50;73.03
69546;SHT31;56766;52.260;20.746;2023-09-19T14:47:11;22.52;72.91
69546;SHT31;56766;52.260;20.746;2023-09-19T14:49:40;22.50;72.77
69546;SHT31;56766;52.260;20.746;2023-09-19T14:52:08;22.49;72.74
69546;SHT31;56766;52.260;20.746;2023-09-19T14:54:36;22.46;73.01
69546;SHT31;56766;52.260;20.746;2023-09-19T14:57:07;22.49;73.18
69546;SHT31;56766;52.260;20.746;2023-09-19T14:59:35;22.48;73.15
69546;SHT31;56766;52.260;20.746;2023-09-19T15:02:05;22.45;72.94
69546;SHT31;56766;52.260;20.746;2023-09-19T15:04:33;22.43;72.92
69546;SHT31;56766;52.260;20.746;2023-09-19T15:07:00;22.40;72.92
69546;SHT31;56766;52.260;20.746;2023-09-19T15:09:26;22.33;73.09
69546;SHT31;56766;52.260;20.746;2023-09-19T15:11:53;22.36;73.04
69546;SHT31;56766;52.260;20.746;2023-09-19T15:14:21;22.37;72.99
69546;SHT31;56766;52.260;20.746;2023-09-19T15:16:48;22.40;72.99
69546;SHT31;56766;52.260;20.746;2023-09-19T15:19:15;22.42;73.03
69546;SHT31;56766;52.260;20.746;2023-09-19T15:21:43;22.41;72.96
69546;SHT31;56766;52.260;20.746;2023-09-19T15:24:10;22.40;73.02
69546;SHT31;56766;52.260;20.746;2023-09-19T15:26:37;22.41;72.84
69546;SHT31;56766;52.260;20.746;2023-09-19T15:29:07;22.37;72.65
69546;SHT31;56766;52.260;20.746;2023-09-19T15:31:37;22.30;72.53
69546;SHT31;56766;52.260;20.746;2023-09-19T15:34:05;22.22;72.38
69546;SHT31;56766;52.260;20.746;2023-09-19T15:36:37;22.14;72.45
69546;SHT31;56766;52.260;20.746;2023-09-19T15:39:09;22.13;72.58
69546;SHT31;56766;52.260;20.746;2023-09-19T15:41:39;22.13;72.73
69546;SHT31;56766;52.260;20.746;2023-09-19T15:44:15;22.16;72.88
69546;SHT31;56766;52.260;20.746;2023-09-19T15:46:43;22.13;72.65
69546;SHT31;56766;52.260;20.746;2023-09-19T15:49:11;22.10;72.43
69546;SHT31;56766;52.260;20.746;2023-09-19T15:51:39;22.06;72.40
69546;SHT31;56766;52.260;20.746;2023-09-19T15:54:11;22.02;72.37
69546;SHT31;56766;52.260;20.746;2023-09-19T15:56:44;21.99;72.40
69546;SHT31;56766;52.260;20.746;2023-09-19T15:59:13;21.98;72.51
69546;SHT31;56766;52.260;20.746;2023-09-19T16:01:41;21.94;72.54
69546;SHT31;56766;52.260;20.746;2023-09-19T16:04:11;21.86;72.49
69546;SHT31;56766;52.260;20.746;2023-09-19T16:06:42;21.79;72.54
69546;SHT31;56766;52.260;20.746;2023-09-19T16:09:09;21.72;72.72
69546;SHT31;56766;52.260;20.746;2023-09-19T16:11:36;21.63;72.82
69546;SHT31;56766;52.260;20.746;2023-09-19T16:14:04;21.53;73.07
69546;SHT31;56766;52.260;20.746;2023-09-19T16:16:33;21.41;73.44